sensor_id;sensor_type;location;lat;lon;timestamp;pressure;altitude;pressure_sealevel;temperature;humidity
10978;BME280;5542;48.272;10.794;2023-03-21T00:00:32;95916.31;;;7.63;75.89
10978;BME280;5542;48.272;10.794;2023-03-21T00:02:59;95916.94;;;7.65;75.83
10978;BME280;5542;48.272;10.794;2023-03-21T00:05:26;95918.53;;;7.66;75.79
10978;BME280;5542;48.272;10.794;2023-03-21T00:07:52;95909.66;;;7.67;75.80
10978;BME280;5542;48.272;10.794;2023-03-21T00:10:19;95908.06;;;7.66;75.88
10978;BME280;5542;48.272;10.794;2023-03-21T00:12:46;95903.84;;;7.65;75.88
10978;BME280;5542;48.272;10.794;2023-03-21T00:15:15;95908.06;;;7.66;75.96
10978;BME280;5542;48.272;10.794;2023-03-21T00:17:44;95904.44;;;7.67;75.78
10978;BME280;5542;48.272;10.794;2023-03-21T00:20:10;95900.22;;;7.66;75.89
10978;BME280;5542;48.272;10.794;2023-03-21T00:22:39;95898.59;;;7.65;75.92
10978;BME280;5542;48.272;10.794;2023-03-21T00:25:06;95902.25;;;7.64;76.13
10978;BME280;5542;48.272;10.794;2023-03-21T00:27:35;95905.66;;;7.65;76.22
10978;BME280;5542;48.272;10.794;2023-03-21T00:30:02;95899.41;;;7.66;76.15
10978;BME280;5542;48.272;10.794;2023-03-21T00:32:29;95899.59;;;7.71;76.13
10978;BME280;5542;48.272;10.794;2023-03-21T00:34:57;95894.16;;;7.73;75.85
10978;BME280;5542;48.272;10.794;2023-03-21T00:37:24;95892.94;;;7.68;75.93
10978;BME280;5542;48.272;10.794;2023-03-21T00:39:52;95897.00;;;7.64;76.19
10978;BME280;5542;48.272;10.794;2023-03-21T00:42:19;95896.38;;;7.62;76.46
10978;BME280;5542;48.272;10.794;2023-03-21T00:44:45;95889.56;;;7.61;76.41
10978;BME280;5542;48.272;10.794;2023-03-21T00:47:12;95887.94;;;7.60;76.33
10978;BME280;5542;48.272;10.794;2023-03-21T00:49:39;95882.31;;;7.57;76.59
10978;BME280;5542;48.272;10.794;2023-03-21T00:52:09;95889.56;;;7.55;76.72
10978;BME280;5542;48.272;10.794;2023-03-21T00:54:36;95875.88;;;7.53;77.01
10978;BME280;5542;48.272;10.794;2023-03-21T00:57:03;95876.09;;;7.51;76.98
10978;BME280;5542;48.272;10.794;2023-03-21T00:59:30;95878.09;;;7.56;76.82
10978;BME280;5542;48.272;10.794;2023-03-21T01:01:56;95875.84;;;7.59;76.77
10978;BME280;5542;48.272;10.794;2023-03-21T01:04:25;95869.63;;;7.60;76.74
10978;BME280;5542;48.272;10.794;2023-03-21T01:06:53;95865.81;;;7.56;76.89
10978;BME280;5542;48.272;10.794;2023-03-21T01:09:22;95862.97;;;7.64;76.63
10978;BME280;5542;48.272;10.794;2023-03-21T01:11:49;95872.44;;;7.65;76.37
10978;BME280;5542;48.272;10.794;2023-03-21T01:14:18;95869.22;;;7.57;76.78
10978;BME280;5542;48.272;10.794;2023-03-21T01:16:45;95869.44;;;7.55;77.00
10978;BME280;5542;48.272;10.794;2023-03-21T01:19:14;95872.44;;;7.59;76.79
10978;BME280;5542;48.272;10.794;2023-03-21T01:21:41;95869.63;;;7.60;76.93
10978;BME280;5542;48.272;10.794;2023-03-21T01:24:08;95862.16;;;7.64;76.90
10978;BME280;5542;48.272;10.794;2023-03-21T01:26:36;95869.19;;;7.63;77.07
10978;BME280;5542;48.272;10.794;2023-03-21T01:29:03;95871.41;;;7.66;77.02
10978;BME280;5542;48.272;10.794;2023-03-21T01:31:30;95861.94;;;7.72;76.44
10978;BME280;5542;48.272;10.794;2023-03-21T01:33:57;95864.16;;;7.75;76.48
10978;BME280;5542;48.272;10.794;2023-03-21T01:36:25;95859.31;;;7.72;76.52
10978;BME280;5542;48.272;10.794;2023-03-21T01:38:52;95862.16;;;7.70;76.95
10978;BME280;5542;48.272;10.794;2023-03-21T01:41:22;95862.94;;;7.71;77.12
10978;BME280;5542;48.272;10.794;2023-03-21T01:43:51;95867.34;;;7.77;76.97
10978;BME280;5542;48.272;10.794;2023-03-21T01:46:31;95857.94;;;7.69;77.08
10978;BME280;5542;48.272;10.794;2023-03-21T01:49:02;95860.16;;;7.66;77.27
10978;BME280;5542;48.272;10.794;2023-03-21T01:51:34;95857.09;;;7.69;77.25
10978;BME280;5542;48.272;10.794;2023-03-21T01:54:03;95859.31;;;7.72;77.42
10978;BME280;5542;48.272;10.794;2023-03-21T01:56:33;95849.47;;;7.67;77.50
10978;BME280;5542;48.272;10.794;2023-03-21T01:59:06;95849.69;;;7.66;77.65
10978;BME280;5542;48.272;10.794;2023-03-21T02:01:34;95846.44;;;7.70;77.46
10978;BME280;5542;48.272;10.794;2023-03-21T02:04:03;95849.84;;;7.71;77.37
10978;BME280;5542;48.272;10.794;2023-03-21T02:06:38;95845.81;;;7.75;77.28
10978;BME280;5542;48.272;10.794;2023-03-21T02:09:11;95845.38;;;7.78;77.14
10978;BME280;5542;48.272;10.794;2023-03-21T02:11:38;95842.59;;;7.80;76.95
10978;BME280;5542;48.272;10.794;2023-03-21T02:14:11;95842.97;;;7.77;77.00
10978;BME280;5542;48.272;10.794;2023-03-21T02:16:49;95842.19;;;7.76;77.20
10978;BME280;5542;48.272;10.794;2023-03-21T02:19:45;95836.94;;;7.76;77.35
10978;BME280;5542;48.272;10.794;2023-03-21T02:22:51;95834.91;;;7.78;77.28
10978;BME280;5542;48.272;10.794;2023-03-21T02:28:32;95833.94;;;7.79;77.48
10978;BME280;5542;48.272;10.794;2023-03-21T02:31:16;95830.69;;;7.77;77.36
10978;BME280;5542;48.272;10.794;2023-03-21T02:34:02;95829.31;;;7.75;77.42
10978;BME280;5542;48.272;10.794;2023-03-21T02:37:03;95833.31;;;7.77;77.39
10978;BME280;5542;48.272;10.794;2023-03-21T02:39:40;95833.31;;;7.77;77.54
10978;BME280;5542;48.272;10.794;2023-03-21T02:42:15;95829.69;;;7.78;77.28
10978;BME280;5542;48.272;10.794;2023-03-21T02:44:45;95834.72;;;7.73;77.15
10978;BME280;5542;48.272;10.794;2023-03-21T02:47:19;95835.56;;;7.67;77.45
10978;BME280;5542;48.272;10.794;2023-03-21T02:49:50;95831.56;;;7.64;77.54
10978;BME280;5542;48.272;10.794;2023-03-21T02:52:23;95831.16;;;7.61;77.89
10978;BME280;5542;48.272;10.794;2023-03-21T02:54:52;95832.56;;;7.63;77.91
10978;BME280;5542;48.272;10.794;2023-03-21T02:57:20;95831.56;;;7.64;77.95
10978;BME280;5542;48.272;10.794;2023-03-21T02:59:47;95825.13;;;7.60;78.32
10978;BME280;5542;48.272;10.794;2023-03-21T03:02:16;95823.50;;;7.59;78.44
10978;BME280;5542;48.272;10.794;2023-03-21T03:04:44;95820.88;;;7.59;78.52
10978;BME280;5542;48.272;10.794;2023-03-21T03:07:18;95818.28;;;7.59;78.46
10978;BME280;5542;48.272;10.794;2023-03-21T03:10:00;95817.88;;;7.62;78.38
10978;BME280;5542;48.272;10.794;2023-03-21T03:12:33;95815.88;;;7.64;78.44
10978;BME280;5542;48.272;10.794;2023-03-21T03:15:10;95807.00;;;7.65;78.34
10978;BME280;5542;48.272;10.794;2023-03-21T03:17:49;95809.97;;;7.69;78.26
10978;BME280;5542;48.272;10.794;2023-03-21T03:20:23;95810.19;;;7.67;78.28
10978;BME280;5542;48.272;10.794;2023-03-21T03:23:04;95813.22;;;7.71;78.17
10978;BME280;5542;48.272;10.794;2023-03-21T03:25:39;95811.22;;;7.66;78.38
10978;BME280;5542;48.272;10.794;2023-03-21T03:28:10;95812.00;;;7.67;78.61
10978;BME280;5542;48.272;10.794;2023-03-21T03:30:39;95812.19;;;7.72;78.34
10978;BME280;5542;48.272;10.794;2023-03-21T03:33:08;95814.41;;;7.68;78.45
10978;BME280;5542;48.272;10.794;2023-03-21T03:35:35;95811.00;;;7.68;78.54
10978;BME280;5542;48.272;10.794;2023-03-21T03:38:05;95807.16;;;7.70;78.51
10978;BME280;5542;48.272;10.794;2023-03-21T03:40:37;95813.22;;;7.71;78.50
10978;BME280;5542;48.272;10.794;2023-03-21T03:43:09;95807.56;;;7.74;78.36
10978;BME280;5542;48.272;10.794;2023-03-21T03:45:41;95808.78;;;7.72;78.28
10978;BME280;5542;48.272;10.794;2023-03-21T03:48:13;95808.78;;;7.72;78.18
10978;BME280;5542;48.272;10.794;2023-03-21T03:50:45;95806.53;;;7.75;77.99
10978;BME280;5542;48.272;10.794;2023-03-21T03:53:18;95809.41;;;7.67;78.38
10978;BME280;5542;48.272;10.794;2023-03-21T03:55:49;95801.53;;;7.67;78.49
10978;BME280;5542;48.272;10.794;2023-03-21T03:58:17;95811.22;;;7.66;78.57
10978;BME280;5542;48.272;10.794;2023-03-21T04:00:44;95809.78;;;7.64;78.63
10978;BME280;5542;48.272;10.794;2023-03-21T04:03:12;95804.78;;;7.62;78.79
10978;BME280;5542;48.272;10.794;2023-03-21T04:05:39;95804.56;;;7.64;78.87
10978;BME280;5542;48.272;10.794;2023-03-21T04:08:06;95807.19;;;7.64;78.82
10978;BME280;5542;48.272;10.794;2023-03-21T04:10:33;95809.00;;;7.63;78.75
10978;BME280;5542;48.272;10.794;2023-03-21T04:13:01;95811.25;;;7.60;79.03
10978;BME280;5542;48.272;10.794;2023-03-21T04:15:28;95807.44;;;7.56;79.21
10978;BME280;5542;48.272;10.794;2023-03-21T04:17:54;95806.81;;;7.54;79.25
10978;BME280;5542;48.272;10.794;2023-03-21T04:20:21;95799.41;;;7.51;79.62
10978;BME280;5542;48.272;10.794;2023-03-21T04:22:48;95805.22;;;7.53;79.92
10978;BME280;5542;48.272;10.794;2023-03-21T04:25:15;95800.78;;;7.53;79.89
10978;BME280;5542;48.272;10.794;2023-03-21T04:27:42;95802.00;;;7.51;80.22
10978;BME280;5542;48.272;10.794;2023-03-21T04:30:13;95806.03;;;7.53;80.37
10978;BME280;5542;48.272;10.794;2023-03-21T04:32:40;95801.00;;;7.52;80.50
10978;BME280;5542;48.272;10.794;2023-03-21T04:35:08;95802.59;;;7.53;80.61
10978;BME280;5542;48.272;10.794;2023-03-21T04:37:36;95801.00;;;7.52;80.85
10978;BME280;5542;48.272;10.794;2023-03-21T04:40:04;95804.00;;;7.55;80.75
10978;BME280;5542;48.272;10.794;2023-03-21T04:42:32;95805.63;;;7.56;80.93
10978;BME280;5542;48.272;10.794;2023-03-21T04:44:59;95806.19;;;7.58;80.90
10978;BME280;5542;48.272;10.794;2023-03-21T04:47:27;95798.16;;;7.60;80.71
10978;BME280;5542;48.272;10.794;2023-03-21T04:49:54;95807.00;;;7.59;80.67
10978;BME280;5542;48.272;10.794;2023-03-21T04:52:22;95800.97;;;7.58;80.84
10978;BME280;5542;48.272;10.794;2023-03-21T04:54:49;95796.53;;;7.59;81.03
10978;BME280;5542;48.272;10.794;2023-03-21T04:57:15;95804.38;;;7.59;80.98
10978;BME280;5542;48.272;10.794;2023-03-21T04:59:42;95798.56;;;7.57;81.18
10978;BME280;5542;48.272;10.794;2023-03-21T05:02:09;95799.38;;;7.57;81.17
10978;BME280;5542;48.272;10.794;2023-03-21T05:04:37;95808.41;;;7.61;80.73
10978;BME280;5542;48.272;10.794;2023-03-21T05:07:04;95806.03;;;7.53;80.78
10978;BME280;5542;48.272;10.794;2023-03-21T05:09:30;95805.44;;;7.44;81.15
10978;BME280;5542;48.272;10.794;2023-03-21T05:11:57;95801.84;;;7.46;81.26
10978;BME280;5542;48.272;10.794;2023-03-21T05:14:25;95798.19;;;7.47;81.44
10978;BME280;5542;48.272;10.794;2023-03-21T05:16:52;95806.63;;;7.49;81.32
10978;BME280;5542;48.272;10.794;2023-03-21T05:19:22;95806.44;;;7.50;81.34
10978;BME280;5542;48.272;10.794;2023-03-21T05:21:50;95799.59;;;7.49;81.42
10978;BME280;5542;48.272;10.794;2023-03-21T05:24:19;95801.84;;;7.46;81.20
10978;BME280;5542;48.272;10.794;2023-03-21T05:26:46;95795.41;;;7.41;81.57
10978;BME280;5542;48.272;10.794;2023-03-21T05:29:17;95787.56;;;7.41;81.84
10978;BME280;5542;48.272;10.794;2023-03-21T05:31:44;95797.41;;;7.46;81.79
10978;BME280;5542;48.272;10.794;2023-03-21T05:34:11;95796.00;;;7.43;81.71
10978;BME280;5542;48.272;10.794;2023-03-21T05:36:37;95794.59;;;7.41;81.96
10978;BME280;5542;48.272;10.794;2023-03-21T05:39:05;95801.00;;;7.45;81.68
10978;BME280;5542;48.272;10.794;2023-03-21T05:41:32;95805.25;;;7.39;81.90
10978;BME280;5542;48.272;10.794;2023-03-21T05:43:59;95801.03;;;7.38;82.10
10978;BME280;5542;48.272;10.794;2023-03-21T05:46:26;95805.06;;;7.41;82.18
10978;BME280;5542;48.272;10.794;2023-03-21T05:48:52;95809.06;;;7.43;82.21
10978;BME280;5542;48.272;10.794;2023-03-21T05:51:19;95811.06;;;7.48;81.95
10978;BME280;5542;48.272;10.794;2023-03-21T05:53:45;95812.88;;;7.48;82.05
10978;BME280;5542;48.272;10.794;2023-03-21T05:56:14;95814.91;;;7.46;81.91
10978;BME280;5542;48.272;10.794;2023-03-21T05:58:40;95814.09;;;7.45;81.91
10978;BME280;5542;48.272;10.794;2023-03-21T06:01:07;95816.34;;;7.35;82.24
10978;BME280;5542;48.272;10.794;2023-03-21T06:03:34;95812.34;;;7.32;82.39
10978;BME280;5542;48.272;10.794;2023-03-21T06:06:02;95807.69;;;7.34;82.58
10978;BME280;5542;48.272;10.794;2023-03-21T06:08:28;95813.53;;;7.36;82.50
10978;BME280;5542;48.272;10.794;2023-03-21T06:10:56;95820.97;;;7.33;82.68
10978;BME280;5542;48.272;10.794;2023-03-21T06:13:23;95811.31;;;7.33;82.61
10978;BME280;5542;48.272;10.794;2023-03-21T06:15:50;95816.34;;;7.35;82.55
10978;BME280;5542;48.272;10.794;2023-03-21T06:18:17;95818.75;;;7.36;82.45
10978;BME280;5542;48.272;10.794;2023-03-21T06:20:43;95813.13;;;7.33;82.62
10978;BME280;5542;48.272;10.794;2023-03-21T06:23:10;95820.38;;;7.31;82.71
10978;BME280;5542;48.272;10.794;2023-03-21T06:25:36;95823.81;;;7.31;82.92
10978;BME280;5542;48.272;10.794;2023-03-21T06:28:03;95816.94;;;7.30;83.30
10978;BME280;5542;48.272;10.794;2023-03-21T06:30:31;95823.81;;;7.31;83.55
10978;BME280;5542;48.272;10.794;2023-03-21T06:32:57;95814.72;;;7.34;83.59
10978;BME280;5542;48.272;10.794;2023-03-21T06:35:24;95818.75;;;7.36;83.65
10978;BME280;5542;48.272;10.794;2023-03-21T06:37:50;95817.75;;;7.37;83.72
10978;BME280;5542;48.272;10.794;2023-03-21T06:40:17;95820.78;;;7.41;83.60
10978;BME280;5542;48.272;10.794;2023-03-21T06:42:44;95813.09;;;7.39;83.64
10978;BME280;5542;48.272;10.794;2023-03-21T06:45:10;95822.56;;;7.40;83.83
10978;BME280;5542;48.272;10.794;2023-03-21T06:47:38;95828.38;;;7.49;83.53
10978;BME280;5542;48.272;10.794;2023-03-21T06:50:06;95818.69;;;7.56;83.31
10978;BME280;5542;48.272;10.794;2023-03-21T06:52:32;95818.47;;;7.58;82.98
10978;BME280;5542;48.272;10.794;2023-03-21T06:54:59;95818.47;;;7.58;82.95
10978;BME280;5542;48.272;10.794;2023-03-21T06:57:25;95824.53;;;7.58;83.13
10978;BME280;5542;48.272;10.794;2023-03-21T06:59:52;95823.50;;;7.59;83.09
10978;BME280;5542;48.272;10.794;2023-03-21T07:02:18;95821.91;;;7.58;83.26
10978;BME280;5542;48.272;10.794;2023-03-21T07:04:46;95819.91;;;7.60;83.48
10978;BME280;5542;48.272;10.794;2023-03-21T07:07:13;95819.88;;;7.67;83.28
10978;BME280;5542;48.272;10.794;2023-03-21T07:09:40;95820.25;;;7.70;82.97
10978;BME280;5542;48.272;10.794;2023-03-21T07:12:07;95831.13;;;7.67;83.13
10978;BME280;5542;48.272;10.794;2023-03-21T07:14:34;95833.13;;;7.72;83.18
10978;BME280;5542;48.272;10.794;2023-03-21T07:17:00;95836.94;;;7.76;82.39
10978;BME280;5542;48.272;10.794;2023-03-21T07:19:27;95830.28;;;7.80;82.04
10978;BME280;5542;48.272;10.794;2023-03-21T07:21:55;95835.94;;;7.77;82.16
10978;BME280;5542;48.272;10.794;2023-03-21T07:24:21;95832.50;;;7.83;82.55
10978;BME280;5542;48.272;10.794;2023-03-21T07:26:48;95833.94;;;7.79;82.56
10978;BME280;5542;48.272;10.794;2023-03-21T07:29:15;95833.31;;;7.77;82.91
10978;BME280;5542;48.272;10.794;2023-03-21T07:31:41;95828.06;;;7.77;83.51
10978;BME280;5542;48.272;10.794;2023-03-21T07:34:08;95826.88;;;7.80;83.76
10978;BME280;5542;48.272;10.794;2023-03-21T07:36:35;95830.88;;;7.82;83.80
10978;BME280;5542;48.272;10.794;2023-03-21T07:39:03;95820.56;;;7.87;83.62
10978;BME280;5542;48.272;10.794;2023-03-21T07:41:30;95824.16;;;8.00;83.07
10978;BME280;5542;48.272;10.794;2023-03-21T07:43:57;95817.31;;;7.99;82.90
10978;BME280;5542;48.272;10.794;2023-03-21T07:46:23;95826.38;;;8.03;82.80
10978;BME280;5542;48.272;10.794;2023-03-21T07:48:50;95827.75;;;8.05;82.84
10978;BME280;5542;48.272;10.794;2023-03-21T07:51:17;95824.84;;;8.20;82.57
10978;BME280;5542;48.272;10.794;2023-03-21T07:53:43;95822.84;;;8.22;82.00
10978;BME280;5542;48.272;10.794;2023-03-21T07:56:14;95828.25;;;8.27;82.39
10978;BME280;5542;48.272;10.794;2023-03-21T07:58:41;95827.81;;;8.30;82.17
10978;BME280;5542;48.272;10.794;2023-03-21T08:01:08;95824.19;;;8.31;81.89
10978;BME280;5542;48.272;10.794;2023-03-21T08:03:34;95823.75;;;8.34;81.75
10978;BME280;5542;48.272;10.794;2023-03-21T08:06:02;95825.19;;;8.37;82.06
10978;BME280;5542;48.272;10.794;2023-03-21T08:08:29;95823.13;;;8.45;81.70
10978;BME280;5542;48.272;10.794;2023-03-21T08:10:56;95824.28;;;8.50;81.12
10978;BME280;5542;48.272;10.794;2023-03-21T08:13:24;95827.66;;;8.57;80.93
10978;BME280;5542;48.272;10.794;2023-03-21T08:15:50;95829.88;;;8.60;80.96
10978;BME280;5542;48.272;10.794;2023-03-21T08:18:17;95824.94;;;8.70;80.57
10978;BME280;5542;48.272;10.794;2023-03-21T08:20:44;95821.47;;;8.76;80.36
10978;BME280;5542;48.272;10.794;2023-03-21T08:23:10;95817.00;;;8.83;79.87
10978;BME280;5542;48.272;10.794;2023-03-21T08:25:38;95822.38;;;8.88;79.55
10978;BME280;5542;48.272;10.794;2023-03-21T08:28:04;95815.91;;;8.91;79.37
10978;BME280;5542;48.272;10.794;2023-03-21T08:30:32;95826.06;;;9.06;78.82
10978;BME280;5542;48.272;10.794;2023-03-21T08:33:00;95824.38;;;9.11;78.14
10978;BME280;5542;48.272;10.794;2023-03-21T08:35:27;95814.91;;;9.10;78.56
10978;BME280;5542;48.272;10.794;2023-03-21T08:37:53;95814.63;;;9.18;79.08
10978;BME280;5542;48.272;10.794;2023-03-21T08:40:20;95813.47;;;9.33;78.33
10978;BME280;5542;48.272;10.794;2023-03-21T08:42:46;95815.88;;;9.34;77.58
10978;BME280;5542;48.272;10.794;2023-03-21T08:45:16;95818.81;;;9.44;77.42
10978;BME280;5542;48.272;10.794;2023-03-21T08:47:44;95816.91;;;9.52;77.48
10978;BME280;5542;48.272;10.794;2023-03-21T08:50:14;95818.66;;;9.76;75.14
10978;BME280;5542;48.272;10.794;2023-03-21T08:52:41;95811.81;;;9.75;75.73
10978;BME280;5542;48.272;10.794;2023-03-21T08:55:09;95815.28;;;9.87;74.75
10978;BME280;5542;48.272;10.794;2023-03-21T08:57:35;95807.03;;;10.02;72.66
10978;BME280;5542;48.272;10.794;2023-03-21T09:00:04;95804.19;;;10.15;70.96
10978;BME280;5542;48.272;10.794;2023-03-21T09:02:34;95804.88;;;10.11;71.84
10978;BME280;5542;48.272;10.794;2023-03-21T09:05:02;95810.63;;;10.19;71.78
10978;BME280;5542;48.272;10.794;2023-03-21T09:07:30;95805.78;;;10.35;70.71
10978;BME280;5542;48.272;10.794;2023-03-21T09:09:58;95803.38;;;10.33;71.38
10978;BME280;5542;48.272;10.794;2023-03-21T09:12:25;95796.78;;;10.42;71.37
10978;BME280;5542;48.272;10.794;2023-03-21T09:14:51;95802.09;;;10.66;68.95
10978;BME280;5542;48.272;10.794;2023-03-21T09:17:18;95800.38;;;10.60;68.73
10978;BME280;5542;48.272;10.794;2023-03-21T09:19:45;95796.81;;;10.66;68.94
10978;BME280;5542;48.272;10.794;2023-03-21T09:22:14;95803.47;;;10.80;69.10
10978;BME280;5542;48.272;10.794;2023-03-21T09:24:42;95799.94;;;11.10;64.93
10978;BME280;5542;48.272;10.794;2023-03-21T09:27:10;95803.72;;;11.14;66.90
10978;BME280;5542;48.272;10.794;2023-03-21T09:29:38;95799.13;;;11.44;63.98
10978;BME280;5542;48.272;10.794;2023-03-21T09:32:05;95796.25;;;11.46;62.60
10978;BME280;5542;48.272;10.794;2023-03-21T09:34:32;95791.44;;;11.54;60.83
10978;BME280;5542;48.272;10.794;2023-03-21T09:37:01;95800.22;;;11.84;60.68
10978;BME280;5542;48.272;10.794;2023-03-21T09:39:35;95800.16;;;11.95;61.68
10978;BME280;5542;48.272;10.794;2023-03-21T09:42:12;95790.75;;;12.28;56.18
10978;BME280;5542;48.272;10.794;2023-03-21T09:44:50;95793.28;;;12.23;57.06
10978;BME280;5542;48.272;10.794;2023-03-21T09:47:21;95792.78;;;12.54;57.20
10978;BME280;5542;48.272;10.794;2023-03-21T09:49:54;95786.88;;;12.64;53.82
10978;BME280;5542;48.272;10.794;2023-03-21T09:52:26;95788.72;;;12.64;54.12
10978;BME280;5542;48.272;10.794;2023-03-21T09:54:57;95783.59;;;12.57;53.27
10978;BME280;5542;48.272;10.794;2023-03-21T09:57:29;95786.72;;;12.71;53.12
10978;BME280;5542;48.272;10.794;2023-03-21T09:59:58;95781.19;;;12.89;51.85
10978;BME280;5542;48.272;10.794;2023-03-21T10:02:35;95773.34;;;12.94;52.10
10978;BME280;5542;48.272;10.794;2023-03-21T10:05:10;95773.94;;;12.96;51.02
10978;BME280;5542;48.272;10.794;2023-03-21T10:07:40;95774.06;;;13.06;50.02
10978;BME280;5542;48.272;10.794;2023-03-21T10:10:14;95776.16;;;12.88;51.83
10978;BME280;5542;48.272;10.794;2023-03-21T10:12:43;95770.50;;;12.79;52.66
10978;BME280;5542;48.272;10.794;2023-03-21T10:15:16;95763.84;;;12.93;51.73
10978;BME280;5542;48.272;10.794;2023-03-21T10:17:47;95760.47;;;12.81;52.49
10978;BME280;5542;48.272;10.794;2023-03-21T10:20:17;95751.84;;;12.86;52.22
10978;BME280;5542;48.272;10.794;2023-03-21T10:22:47;95748.66;;;12.84;51.30
10978;BME280;5542;48.272;10.794;2023-03-21T10:25:18;95758.63;;;12.98;52.08
10978;BME280;5542;48.272;10.794;2023-03-21T10:27:46;95754.28;;;13.09;51.47
10978;BME280;5542;48.272;10.794;2023-03-21T10:30:20;95749.66;;;12.99;52.38
10978;BME280;5542;48.272;10.794;2023-03-21T10:32:51;95735.75;;;13.04;52.46
10978;BME280;5542;48.272;10.794;2023-03-21T10:35:17;95732.50;;;13.19;52.03
10978;BME280;5542;48.272;10.794;2023-03-21T10:37:45;95728.31;;;13.40;51.08
10978;BME280;5542;48.272;10.794;2023-03-21T10:40:13;95725.38;;;13.36;51.21
10978;BME280;5542;48.272;10.794;2023-03-21T10:42:42;95727.22;;;13.36;51.10
10978;BME280;5542;48.272;10.794;2023-03-21T10:45:14;95725.50;;;13.46;50.24
10978;BME280;5542;48.272;10.794;2023-03-21T10:47:41;95732.94;;;13.49;51.11
10978;BME280;5542;48.272;10.794;2023-03-21T10:50:12;95727.22;;;13.36;52.75
10978;BME280;5542;48.272;10.794;2023-03-21T10:52:43;95732.94;;;13.49;53.53
10978;BME280;5542;48.272;10.794;2023-03-21T10:55:19;95730.66;;;13.36;51.85
10978;BME280;5542;48.272;10.794;2023-03-21T10:57:52;95731.16;;;13.55;51.58
10978;BME280;5542;48.272;10.794;2023-03-21T11:00:21;95735.97;;;13.85;50.43
10978;BME280;5542;48.272;10.794;2023-03-21T11:02:49;95728.66;;;13.92;49.43
10978;BME280;5542;48.272;10.794;2023-03-21T11:05:20;95733.38;;;13.90;49.56
10978;BME280;5542;48.272;10.794;2023-03-21T11:07:58;95726.50;;;13.67;50.34
10978;BME280;5542;48.272;10.794;2023-03-21T11:10:27;95729.97;;;13.68;50.74
10978;BME280;5542;48.272;10.794;2023-03-21T11:12:58;95728.56;;;13.82;51.74
10978;BME280;5542;48.272;10.794;2023-03-21T11:15:29;95716.94;;;14.10;50.56
10978;BME280;5542;48.272;10.794;2023-03-21T11:17:56;95725.16;;;14.14;50.07
10978;BME280;5542;48.272;10.794;2023-03-21T11:20:22;95704.22;;;14.07;49.79
10978;BME280;5542;48.272;10.794;2023-03-21T11:22:53;95709.88;;;14.21;49.34
10978;BME280;5542;48.272;10.794;2023-03-21T11:25:23;95706.56;;;14.35;49.27
10978;BME280;5542;48.272;10.794;2023-03-21T11:27:53;95699.16;;;14.38;49.80
10978;BME280;5542;48.272;10.794;2023-03-21T11:30:23;95706.75;;;14.29;49.32
10978;BME280;5542;48.272;10.794;2023-03-21T11:32:54;95700.25;;;14.42;49.59
10978;BME280;5542;48.272;10.794;2023-03-21T11:35:23;95691.09;;;14.49;49.12
10978;BME280;5542;48.272;10.794;2023-03-21T11:37:53;95696.78;;;14.36;51.33
10978;BME280;5542;48.272;10.794;2023-03-21T11:40:22;95688.88;;;14.41;51.61
10978;BME280;5542;48.272;10.794;2023-03-21T11:42:51;95680.84;;;14.58;48.67
10978;BME280;5542;48.272;10.794;2023-03-21T11:45:19;95680.88;;;14.63;49.52
10978;BME280;5542;48.272;10.794;2023-03-21T11:47:49;95668.75;;;14.67;49.25
10978;BME280;5542;48.272;10.794;2023-03-21T11:50:26;95677.56;;;14.83;50.22
10978;BME280;5542;48.272;10.794;2023-03-21T11:55:56;95664.50;;;15.24;48.13
10978;BME280;5542;48.272;10.794;2023-03-21T11:58:32;95660.88;;;15.35;46.93
10978;BME280;5542;48.272;10.794;2023-03-21T12:01:07;95659.47;;;15.17;48.16
10978;BME280;5542;48.272;10.794;2023-03-21T12:04:02;95647.28;;;15.16;47.30
10978;BME280;5542;48.272;10.794;2023-03-21T12:06:36;95645.69;;;15.15;47.23
10978;BME280;5542;48.272;10.794;2023-03-21T12:09:15;95644.84;;;15.09;48.09
10978;BME280;5542;48.272;10.794;2023-03-21T12:11:51;95636.69;;;15.21;47.83
10978;BME280;5542;48.272;10.794;2023-03-21T12:14:29;95634.84;;;15.22;49.11
10978;BME280;5542;48.272;10.794;2023-03-21T12:17:08;95627.50;;;15.34;48.32
10978;BME280;5542;48.272;10.794;2023-03-21T12:19:53;95623.03;;;15.55;47.29
10978;BME280;5542;48.272;10.794;2023-03-21T12:22:31;95616.13;;;15.54;47.21
10978;BME280;5542;48.272;10.794;2023-03-21T12:25:01;95617.25;;;15.73;47.84
10978;BME280;5542;48.272;10.794;2023-03-21T12:27:38;95618.06;;;15.79;46.23
10978;BME280;5542;48.272;10.794;2023-03-21T12:30:21;95617.56;;;15.97;45.49
10978;BME280;5542;48.272;10.794;2023-03-21T12:32:59;95606.16;;;15.81;46.07
10978;BME280;5542;48.272;10.794;2023-03-21T12:35:47;95598.47;;;15.95;45.12
10978;BME280;5542;48.272;10.794;2023-03-21T12:38:22;95599.00;;;15.92;45.27
10978;BME280;5542;48.272;10.794;2023-03-21T12:41:06;95592.09;;;15.86;44.04
10978;BME280;5542;48.272;10.794;2023-03-21T12:43:43;95586.78;;;15.86;43.95
10978;BME280;5542;48.272;10.794;2023-03-21T12:46:15;95593.13;;;15.90;43.83
10978;BME280;5542;48.272;10.794;2023-03-21T12:48:47;95584.13;;;15.81;44.52
10978;BME280;5542;48.272;10.794;2023-03-21T12:51:18;95585.72;;;15.82;45.68
10978;BME280;5542;48.272;10.794;2023-03-21T12:53:53;95582.28;;;15.86;44.98
10978;BME280;5542;48.272;10.794;2023-03-21T12:56:28;95585.44;;;15.73;44.49
10978;BME280;5542;48.272;10.794;2023-03-21T12:58:58;95583.31;;;15.80;43.42
10978;BME280;5542;48.272;10.794;2023-03-21T13:01:27;95582.53;;;15.75;43.47
10978;BME280;5542;48.272;10.794;2023-03-21T13:04:06;95576.97;;;15.92;42.93
10978;BME280;5542;48.272;10.794;2023-03-21T13:06:36;95567.16;;;15.92;43.25
10978;BME280;5542;48.272;10.794;2023-03-21T13:09:09;95570.34;;;15.89;43.46
10978;BME280;5542;48.272;10.794;2023-03-21T13:11:39;95571.91;;;15.85;44.93
10978;BME280;5542;48.272;10.794;2023-03-21T13:14:13;95563.97;;;16.10;44.76
10978;BME280;5542;48.272;10.794;2023-03-21T13:16:46;95561.34;;;16.05;44.67
10978;BME280;5542;48.272;10.794;2023-03-21T13:19:18;95562.91;;;16.17;43.94
10978;BME280;5542;48.272;10.794;2023-03-21T13:21:51;95559.97;;;16.23;44.28
10978;BME280;5542;48.272;10.794;2023-03-21T13:24:26;95549.34;;;16.44;43.78
10978;BME280;5542;48.272;10.794;2023-03-21T13:27:02;95549.03;;;16.55;42.51